sensor_id;sensor_type;location;lat;lon;timestamp;P1;durP1;ratioP1;P2;durP2;ratioP2
43511;SDS011;34054;52.100;5.116;2023-03-01T00:00:20;11.00;;;9.93;;
43511;SDS011;34054;52.100;5.116;2023-03-01T00:00:52;12.18;;;10.98;;
43511;SDS011;34054;52.100;5.116;2023-03-01T00:01:24;11.95;;;10.30;;
43511;SDS011;34054;52.100;5.116;2023-03-01T00:01:57;13.88;;;10.48;;
43511;SDS011;34054;52.100;5.116;2023-03-01T00:02:29;15.88;;;13.73;;
43511;SDS011;34054;52.100;5.116;2023-03-01T00:03:01;14.00;;;12.55;;
43511;SDS011;34054;52.100;5.116;2023-03-01T00:03:32;11.95;;;10.85;;
43511;SDS011;34054;52.100;5.116;2023-03-01T00:04:05;12.85;;;11.48;;
43511;SDS011;34054;52.100;5.116;2023-03-01T00:04:36;14.32;;;12.32;;
43511;SDS011;34054;52.100;5.116;2023-03-01T00:05:08;11.65;;;10.38;;
43511;SDS011;34054;52.100;5.116;2023-03-01T00:05:43;13.13;;;11.93;;
43511;SDS011;34054;52.100;5.116;2023-03-01T00:06:15;13.02;;;11.77;;
43511;SDS011;34054;52.100;5.116;2023-03-01T00:06:46;12.93;;;11.02;;
43511;SDS011;34054;52.100;5.116;2023-03-01T00:07:18;10.73;;;9.25;;
43511;SDS011;34054;52.100;5.116;2023-03-01T00:07:52;13.45;;;12.18;;
43511;SDS011;34054;52.100;5.116;2023-03-01T00:08:23;11.75;;;10.43;;
43511;SDS011;34054;52.100;5.116;2023-03-01T00:08:55;11.30;;;10.25;;
43511;SDS011;34054;52.100;5.116;2023-03-01T00:09:27;12.20;;;10.95;;
43511;SDS011;34054;52.100;5.116;2023-03-01T00:09:58;13.30;;;11.98;;
43511;SDS011;34054;52.100;5.116;2023-03-01T00:10:29;12.40;;;10.93;;
43511;SDS011;34054;52.100;5.116;2023-03-01T00:11:04;12.35;;;11.15;;
43511;SDS011;34054;52.100;5.116;2023-03-01T00:11:36;16.27;;;10.57;;
43511;SDS011;34054;52.100;5.116;2023-03-01T00:12:08;11.13;;;10.02;;
43511;SDS011;34054;52.100;5.116;2023-03-01T00:12:41;14.73;;;11.63;;
43511;SDS011;34054;52.100;5.116;2023-03-01T00:13:12;13.00;;;11.77;;
43511;SDS011;34054;52.100;5.116;2023-03-01T00:13:44;15.27;;;10.00;;
43511;SDS011;34054;52.100;5.116;2023-03-01T00:14:16;14.82;;;12.60;;
43511;SDS011;34054;52.100;5.116;2023-03-01T00:14:49;12.52;;;10.52;;
43511;SDS011;34054;52.100;5.116;2023-03-01T00:15:20;12.38;;;11.10;;
43511;SDS011;34054;52.100;5.116;2023-03-01T00:15:51;14.48;;;13.18;;
43511;SDS011;34054;52.100;5.116;2023-03-01T00:16:24;12.60;;;11.30;;
43511;SDS011;34054;52.100;5.116;2023-03-01T00:16:57;12.77;;;11.55;;
43511;SDS011;34054;52.100;5.116;2023-03-01T00:17:28;12.07;;;10.70;;
43511;SDS011;34054;52.100;5.116;2023-03-01T00:18:00;14.25;;;11.07;;
43511;SDS011;34054;52.100;5.116;2023-03-01T00:18:32;11.35;;;10.07;;
43511;SDS011;34054;52.100;5.116;2023-03-01T00:19:04;11.73;;;10.57;;
43511;SDS011;34054;52.100;5.116;2023-03-01T00:19:35;14.43;;;12.65;;
43511;SDS011;34054;52.100;5.116;2023-03-01T00:20:08;15.30;;;12.52;;
43511;SDS011;34054;52.100;5.116;2023-03-01T00:20:40;14.45;;;12.95;;
43511;SDS011;34054;52.100;5.116;2023-03-01T00:21:12;21.10;;;15.55;;
43511;SDS011;34054;52.100;5.116;2023-03-01T00:21:44;40.70;;;28.00;;
43511;SDS011;34054;52.100;5.116;2023-03-01T00:22:15;47.95;;;38.53;;
43511;SDS011;34054;52.100;5.116;2023-03-01T00:22:47;47.03;;;41.55;;
43511;SDS011;34054;52.100;5.116;2023-03-01T00:23:19;59.67;;;46.05;;
43511;SDS011;34054;52.100;5.116;2023-03-01T00:23:51;60.83;;;45.65;;
43511;SDS011;34054;52.100;5.116;2023-03-01T00:24:23;31.17;;;26.27;;
43511;SDS011;34054;52.100;5.116;2023-03-01T00:24:55;48.83;;;37.28;;
43511;SDS011;34054;52.100;5.116;2023-03-01T00:25:26;62.85;;;38.67;;
43511;SDS011;34054;52.100;5.116;2023-03-01T00:25:57;42.17;;;35.80;;
43511;SDS011;34054;52.100;5.116;2023-03-01T00:26:30;44.53;;;30.77;;
43511;SDS011;34054;52.100;5.116;2023-03-01T00:27:02;45.25;;;36.35;;
43511;SDS011;34054;52.100;5.116;2023-03-01T00:27:34;32.78;;;28.33;;
43511;SDS011;34054;52.100;5.116;2023-03-01T00:28:05;35.00;;;29.42;;
43511;SDS011;34054;52.100;5.116;2023-03-01T00:28:36;41.78;;;31.20;;
43511;SDS011;34054;52.100;5.116;2023-03-01T00:29:08;47.85;;;36.42;;
43511;SDS011;34054;52.100;5.116;2023-03-01T00:29:39;49.25;;;38.40;;
43511;SDS011;34054;52.100;5.116;2023-03-01T00:30:11;29.52;;;23.38;;
43511;SDS011;34054;52.100;5.116;2023-03-01T00:30:43;38.88;;;32.30;;
43511;SDS011;34054;52.100;5.116;2023-03-01T00:31:15;59.85;;;42.92;;
43511;SDS011;34054;52.100;5.116;2023-03-01T00:31:48;62.42;;;45.80;;
43511;SDS011;34054;52.100;5.116;2023-03-01T00:32:20;55.28;;;38.75;;
43511;SDS011;34054;52.100;5.116;2023-03-01T00:32:52;35.33;;;29.52;;
43511;SDS011;34054;52.100;5.116;2023-03-01T00:33:23;39.22;;;26.95;;
43511;SDS011;34054;52.100;5.116;2023-03-01T00:33:56;29.70;;;24.33;;
43511;SDS011;34054;52.100;5.116;2023-03-01T00:34:28;27.30;;;19.23;;
43511;SDS011;34054;52.100;5.116;2023-03-01T00:35:00;25.88;;;18.05;;
43511;SDS011;34054;52.100;5.116;2023-03-01T00:35:32;19.30;;;15.77;;
43511;SDS011;34054;52.100;5.116;2023-03-01T00:36:04;24.40;;;18.67;;
43511;SDS011;34054;52.100;5.116;2023-03-01T00:36:36;21.83;;;19.25;;
43511;SDS011;34054;52.100;5.116;2023-03-01T00:37:09;25.52;;;20.15;;
43511;SDS011;34054;52.100;5.116;2023-03-01T00:37:40;30.02;;;26.08;;
43511;SDS011;34054;52.100;5.116;2023-03-01T00:38:12;26.92;;;22.52;;
43511;SDS011;34054;52.100;5.116;2023-03-01T00:38:44;35.80;;;25.50;;
43511;SDS011;34054;52.100;5.116;2023-03-01T00:39:16;44.45;;;33.97;;
43511;SDS011;34054;52.100;5.116;2023-03-01T00:39:47;84.75;;;65.57;;
43511;SDS011;34054;52.100;5.116;2023-03-01T00:40:19;72.13;;;52.67;;
43511;SDS011;34054;52.100;5.116;2023-03-01T00:40:51;85.95;;;63.85;;
43511;SDS011;34054;52.100;5.116;2023-03-01T00:41:22;94.85;;;69.05;;
43511;SDS011;34054;52.100;5.116;2023-03-01T00:41:58;96.65;;;69.88;;
43511;SDS011;34054;52.100;5.116;2023-03-01T00:42:29;82.40;;;51.80;;
43511;SDS011;34054;52.100;5.116;2023-03-01T00:43:00;86.82;;;60.17;;
43511;SDS011;34054;52.100;5.116;2023-03-01T00:43:33;79.60;;;59.35;;
43511;SDS011;34054;52.100;5.116;2023-03-01T00:44:07;49.90;;;36.65;;
43511;SDS011;34054;52.100;5.116;2023-03-01T00:44:38;44.03;;;34.83;;
43511;SDS011;34054;52.100;5.116;2023-03-01T00:45:10;31.45;;;22.88;;
43511;SDS011;34054;52.100;5.116;2023-03-01T00:45:41;13.75;;;12.27;;
43511;SDS011;34054;52.100;5.116;2023-03-01T00:46:13;14.57;;;13.15;;
43511;SDS011;34054;52.100;5.116;2023-03-01T00:46:47;19.15;;;15.38;;
43511;SDS011;34054;52.100;5.116;2023-03-01T00:47:18;33.55;;;24.60;;
43511;SDS011;34054;52.100;5.116;2023-03-01T00:47:49;38.83;;;26.58;;
43511;SDS011;34054;52.100;5.116;2023-03-01T00:48:22;28.60;;;23.10;;
43511;SDS011;34054;52.100;5.116;2023-03-01T00:48:53;31.35;;;24.67;;
43511;SDS011;34054;52.100;5.116;2023-03-01T00:49:24;32.90;;;22.70;;
43511;SDS011;34054;52.100;5.116;2023-03-01T00:49:58;30.70;;;25.05;;
43511;SDS011;34054;52.100;5.116;2023-03-01T00:50:30;33.03;;;27.05;;
43511;SDS011;34054;52.100;5.116;2023-03-01T00:51:05;31.35;;;27.48;;
43511;SDS011;34054;52.100;5.116;2023-03-01T00:51:37;38.92;;;29.15;;
43511;SDS011;34054;52.100;5.116;2023-03-01T00:52:11;28.58;;;25.40;;
43511;SDS011;34054;52.100;5.116;2023-03-01T00:52:43;37.20;;;23.85;;
43511;SDS011;34054;52.100;5.116;2023-03-01T00:53:14;29.55;;;23.92;;
43511;SDS011;34054;52.100;5.116;2023-03-01T00:53:45;35.15;;;22.95;;
43511;SDS011;34054;52.100;5.116;2023-03-01T00:54:18;27.38;;;23.25;;
43511;SDS011;34054;52.100;5.116;2023-03-01T00:54:51;32.30;;;23.30;;
43511;SDS011;34054;52.100;5.116;2023-03-01T00:55:23;20.70;;;18.25;;
43511;SDS011;34054;52.100;5.116;2023-03-01T00:55:56;28.98;;;21.63;;
43511;SDS011;34054;52.100;5.116;2023-03-01T00:56:27;22.73;;;19.08;;
43511;SDS011;34054;52.100;5.116;2023-03-01T00:57:01;21.10;;;16.70;;
43511;SDS011;34054;52.100;5.116;2023-03-01T00:57:33;17.50;;;15.48;;
43511;SDS011;34054;52.100;5.116;2023-03-01T00:58:05;19.33;;;15.82;;
43511;SDS011;34054;52.100;5.116;2023-03-01T00:58:36;16.83;;;15.02;;
43511;SDS011;34054;52.100;5.116;2023-03-01T00:59:09;15.77;;;12.35;;
43511;SDS011;34054;52.100;5.116;2023-03-01T00:59:40;17.27;;;13.55;;
43511;SDS011;34054;52.100;5.116;2023-03-01T01:00:11;16.00;;;13.70;;
43511;SDS011;34054;52.100;5.116;2023-03-01T01:00:44;14.95;;;12.60;;
43511;SDS011;34054;52.100;5.116;2023-03-01T01:01:16;16.02;;;13.88;;
43511;SDS011;34054;52.100;5.116;2023-03-01T01:01:49;14.50;;;12.55;;
43511;SDS011;34054;52.100;5.116;2023-03-01T01:02:21;14.27;;;12.70;;
43511;SDS011;34054;52.100;5.116;2023-03-01T01:02:53;16.13;;;13.70;;
43511;SDS011;34054;52.100;5.116;2023-03-01T01:03:24;13.43;;;12.10;;
43511;SDS011;34054;52.100;5.116;2023-03-01T01:03:56;20.17;;;15.38;;
43511;SDS011;34054;52.100;5.116;2023-03-01T01:04:29;17.00;;;13.80;;
43511;SDS011;34054;52.100;5.116;2023-03-01T01:05:00;12.57;;;11.45;;
43511;SDS011;34054;52.100;5.116;2023-03-01T01:05:33;13.13;;;11.88;;
43511;SDS011;34054;52.100;5.116;2023-03-01T01:06:05;14.25;;;11.70;;
43511;SDS011;34054;52.100;5.116;2023-03-01T01:06:40;14.13;;;12.70;;
43511;SDS011;34054;52.100;5.116;2023-03-01T01:07:13;14.82;;;12.45;;
43511;SDS011;34054;52.100;5.116;2023-03-01T01:07:44;13.98;;;12.57;;
43511;SDS011;34054;52.100;5.116;2023-03-01T01:08:17;12.95;;;11.05;;
43511;SDS011;34054;52.100;5.116;2023-03-01T01:08:48;12.65;;;11.25;;
43511;SDS011;34054;52.100;5.116;2023-03-01T01:09:20;16.00;;;13.20;;
43511;SDS011;34054;52.100;5.116;2023-03-01T01:09:52;15.25;;;12.00;;
43511;SDS011;34054;52.100;5.116;2023-03-01T01:10:24;13.30;;;11.90;;
43511;SDS011;34054;52.100;5.116;2023-03-01T01:10:55;15.30;;;13.07;;
43511;SDS011;34054;52.100;5.116;2023-03-01T01:11:27;12.55;;;10.25;;
43511;SDS011;34054;52.100;5.116;2023-03-01T01:12:01;12.73;;;11.63;;
43511;SDS011;34054;52.100;5.116;2023-03-01T01:12:33;16.45;;;12.07;;
43511;SDS011;34054;52.100;5.116;2023-03-01T01:13:05;12.40;;;11.20;;
43511;SDS011;34054;52.100;5.116;2023-03-01T01:13:36;14.32;;;11.32;;
43511;SDS011;34054;52.100;5.116;2023-03-01T01:14:08;11.52;;;10.52;;
43511;SDS011;34054;52.100;5.116;2023-03-01T01:14:40;12.32;;;11.13;;
43511;SDS011;34054;52.100;5.116;2023-03-01T01:15:11;12.98;;;11.68;;
43511;SDS011;34054;52.100;5.116;2023-03-01T01:15:44;11.73;;;10.63;;
43511;SDS011;34054;52.100;5.116;2023-03-01T01:16:16;11.80;;;10.73;;
43511;SDS011;34054;52.100;5.116;2023-03-01T01:16:49;14.35;;;11.38;;
43511;SDS011;34054;52.100;5.116;2023-03-01T01:17:20;12.02;;;10.88;;
43511;SDS011;34054;52.100;5.116;2023-03-01T01:17:52;13.63;;;12.27;;
43511;SDS011;34054;52.100;5.116;2023-03-01T01:18:24;12.13;;;10.90;;
43511;SDS011;34054;52.100;5.116;2023-03-01T01:18:55;13.05;;;10.50;;
43511;SDS011;34054;52.100;5.116;2023-03-01T01:19:27;12.63;;;11.30;;
43511;SDS011;34054;52.100;5.116;2023-03-01T01:19:59;15.52;;;11.95;;
43511;SDS011;34054;52.100;5.116;2023-03-01T01:20:30;13.05;;;11.18;;
43511;SDS011;34054;52.100;5.116;2023-03-01T01:21:05;12.90;;;11.60;;
43511;SDS011;34054;52.100;5.116;2023-03-01T01:21:38;14.82;;;11.73;;
43511;SDS011;34054;52.100;5.116;2023-03-01T01:22:10;12.25;;;11.10;;
43511;SDS011;34054;52.100;5.116;2023-03-01T01:22:41;11.13;;;9.80;;
43511;SDS011;34054;52.100;5.116;2023-03-01T01:23:12;12.07;;;10.57;;
43511;SDS011;34054;52.100;5.116;2023-03-01T01:23:45;14.88;;;12.20;;
43511;SDS011;34054;52.100;5.116;2023-03-01T01:24:17;15.02;;;11.80;;
43511;SDS011;34054;52.100;5.116;2023-03-01T01:24:49;12.27;;;9.77;;
43511;SDS011;34054;52.100;5.116;2023-03-01T01:25:20;13.65;;;12.18;;
43511;SDS011;34054;52.100;5.116;2023-03-01T01:25:55;14.85;;;11.80;;
43511;SDS011;34054;52.100;5.116;2023-03-01T01:26:27;18.23;;;11.57;;
43511;SDS011;34054;52.100;5.116;2023-03-01T01:27:01;13.80;;;11.90;;
43511;SDS011;34054;52.100;5.116;2023-03-01T01:27:33;13.13;;;11.85;;
43511;SDS011;34054;52.100;5.116;2023-03-01T01:28:04;12.57;;;11.02;;
43511;SDS011;34054;52.100;5.116;2023-03-01T01:28:36;15.32;;;11.57;;
43511;SDS011;34054;52.100;5.116;2023-03-01T01:29:07;10.70;;;9.85;;
43511;SDS011;34054;52.100;5.116;2023-03-01T01:29:40;13.98;;;10.40;;
43511;SDS011;34054;52.100;5.116;2023-03-01T01:30:12;14.80;;;10.90;;
43511;SDS011;34054;52.100;5.116;2023-03-01T01:30:44;16.80;;;10.68;;
43511;SDS011;34054;52.100;5.116;2023-03-01T01:31:15;14.00;;;12.38;;
43511;SDS011;34054;52.100;5.116;2023-03-01T01:31:48;12.98;;;11.77;;
43511;SDS011;34054;52.100;5.116;2023-03-01T01:32:19;13.38;;;12.00;;
43511;SDS011;34054;52.100;5.116;2023-03-01T01:32:50;12.40;;;11.20;;
43511;SDS011;34054;52.100;5.116;2023-03-01T01:33:22;12.48;;;11.27;;
43511;SDS011;34054;52.100;5.116;2023-03-01T01:33:54;16.17;;;10.77;;
43511;SDS011;34054;52.100;5.116;2023-03-01T01:34:26;18.70;;;11.27;;
43511;SDS011;34054;52.100;5.116;2023-03-01T01:34:58;12.82;;;11.60;;
43511;SDS011;34054;52.100;5.116;2023-03-01T01:35:29;12.10;;;10.77;;
43511;SDS011;34054;52.100;5.116;2023-03-01T01:36:00;12.55;;;10.52;;
43511;SDS011;34054;52.100;5.116;2023-03-01T01:36:32;13.25;;;10.93;;
43511;SDS011;34054;52.100;5.116;2023-03-01T01:37:05;15.80;;;10.35;;
43511;SDS011;34054;52.100;5.116;2023-03-01T01:37:38;12.40;;;11.30;;
43511;SDS011;34054;52.100;5.116;2023-03-01T01:38:09;15.68;;;11.93;;
43511;SDS011;34054;52.100;5.116;2023-03-01T01:38:42;12.75;;;11.55;;
43511;SDS011;34054;52.100;5.116;2023-03-01T01:39:13;13.25;;;10.95;;
43511;SDS011;34054;52.100;5.116;2023-03-01T01:39:44;13.15;;;11.73;;
43511;SDS011;34054;52.100;5.116;2023-03-01T01:40:15;12.65;;;11.35;;
43511;SDS011;34054;52.100;5.116;2023-03-01T01:40:48;12.68;;;11.38;;
43511;SDS011;34054;52.100;5.116;2023-03-01T01:41:21;12.40;;;10.90;;
43511;SDS011;34054;52.100;5.116;2023-03-01T01:41:52;12.25;;;11.05;;
43511;SDS011;34054;52.100;5.116;2023-03-01T01:42:26;10.98;;;9.57;;
43511;SDS011;34054;52.100;5.116;2023-03-01T01:42:58;13.38;;;12.27;;
43511;SDS011;34054;52.100;5.116;2023-03-01T01:43:29;12.27;;;10.85;;
43511;SDS011;34054;52.100;5.116;2023-03-01T01:44:11;13.40;;;11.43;;
43511;SDS011;34054;52.100;5.116;2023-03-01T01:44:45;15.73;;;10.85;;
43511;SDS011;34054;52.100;5.116;2023-03-01T01:45:28;16.77;;;12.48;;
43511;SDS011;34054;52.100;5.116;2023-03-01T01:46:03;12.55;;;9.95;;
43511;SDS011;34054;52.100;5.116;2023-03-01T01:46:37;12.27;;;10.18;;
43511;SDS011;34054;52.100;5.116;2023-03-01T01:47:13;13.50;;;12.07;;
43511;SDS011;34054;52.100;5.116;2023-03-01T01:47:46;12.23;;;11.00;;
43511;SDS011;34054;52.100;5.116;2023-03-01T01:48:19;10.95;;;10.02;;
43511;SDS011;34054;52.100;5.116;2023-03-01T01:48:55;14.63;;;13.00;;
43511;SDS011;34054;52.100;5.116;2023-03-01T01:49:31;12.25;;;10.90;;
43511;SDS011;34054;52.100;5.116;2023-03-01T01:50:08;15.85;;;13.48;;
43511;SDS011;34054;52.100;5.116;2023-03-01T01:50:48;12.75;;;11.60;;
43511;SDS011;34054;52.100;5.116;2023-03-01T01:51:27;12.85;;;11.60;;
43511;SDS011;34054;52.100;5.116;2023-03-01T01:52:09;13.45;;;12.05;;
43511;SDS011;34054;52.100;5.116;2023-03-01T01:52:44;12.18;;;10.98;;
43511;SDS011;34054;52.100;5.116;2023-03-01T01:53:19;12.57;;;11.38;;
43511;SDS011;34054;52.100;5.116;2023-03-01T01:53:53;13.93;;;10.27;;
43511;SDS011;34054;52.100;5.116;2023-03-01T01:54:31;10.52;;;9.63;;
43511;SDS011;34054;52.100;5.116;2023-03-01T01:55:11;11.84;;;10.62;;
43511;SDS011;34054;52.100;5.116;2023-03-01T01:55:47;12.10;;;10.90;;
43511;SDS011;34054;52.100;5.116;2023-03-01T01:56:22;13.25;;;12.02;;
43511;SDS011;34054;52.100;5.116;2023-03-01T01:56:56;12.13;;;11.02;;
43511;SDS011;34054;52.100;5.116;2023-03-01T01:57:33;13.77;;;12.43;;
43511;SDS011;34054;52.100;5.116;2023-03-01T01:58:07;13.15;;;11.93;;
43511;SDS011;34054;52.100;5.116;2023-03-01T01:58:42;13.35;;;11.00;;
43511;SDS011;34054;52.100;5.116;2023-03-01T01:59:14;12.18;;;10.98;;
43511;SDS011;34054;52.100;5.116;2023-03-01T01:59:47;11.15;;;10.02;;
43511;SDS011;34054;52.100;5.116;2023-03-01T02:00:24;12.70;;;10.98;;
43511;SDS011;34054;52.100;5.116;2023-03-01T02:00:56;13.98;;;12.57;;
43511;SDS011;34054;52.100;5.116;2023-03-01T02:01:28;12.80;;;11.57;;
43511;SDS011;34054;52.100;5.116;2023-03-01T02:02:00;11.05;;;9.95;;
43511;SDS011;34054;52.100;5.116;2023-03-01T02:02:34;12.00;;;10.90;;
43511;SDS011;34054;52.100;5.116;2023-03-01T02:03:07;14.23;;;12.57;;
43511;SDS011;34054;52.100;5.116;2023-03-01T02:03:40;17.33;;;13.02;;
43511;SDS011;34054;52.100;5.116;2023-03-01T02:04:17;13.55;;;12.25;;
43511;SDS011;34054;52.100;5.116;2023-03-01T02:04:49;11.57;;;10.48;;
43511;SDS011;34054;52.100;5.116;2023-03-01T02:05:33;15.95;;;12.00;;
43511;SDS011;34054;52.100;5.116;2023-03-01T02:06:12;13.10;;;11.35;;
43511;SDS011;34054;52.100;5.116;2023-03-01T02:06:48;16.67;;;11.88;;
43511;SDS011;34054;52.100;5.116;2023-03-01T02:07:26;14.98;;;10.70;;
43511;SDS011;34054;52.100;5.116;2023-03-01T02:07:58;11.95;;;10.85;;
43511;SDS011;34054;52.100;5.116;2023-03-01T02:08:30;13.35;;;11.70;;
43511;SDS011;34054;52.100;5.116;2023-03-01T02:09:06;16.35;;;11.95;;
43511;SDS011;34054;52.100;5.116;2023-03-01T02:09:43;13.38;;;11.30;;
43511;SDS011;34054;52.100;5.116;2023-03-01T02:10:17;13.27;;;11.98;;
43511;SDS011;34054;52.100;5.116;2023-03-01T02:10:50;12.60;;;11.27;;
43511;SDS011;34054;52.100;5.116;2023-03-01T02:11:23;12.57;;;11.48;;
43511;SDS011;34054;52.100;5.116;2023-03-01T02:11:56;13.73;;;12.35;;
43511;SDS011;34054;52.100;5.116;2023-03-01T02:12:30;14.35;;;11.60;;
43511;SDS011;34054;52.100;5.116;2023-03-01T02:13:03;13.60;;;12.20;;
43511;SDS011;34054;52.100;5.116;2023-03-01T02:13:34;12.27;;;11.02;;
43511;SDS011;34054;52.100;5.116;2023-03-01T02:14:07;13.95;;;12.55;;
43511;SDS011;34054;52.100;5.116;2023-03-01T02:14:39;12.35;;;10.90;;
43511;SDS011;34054;52.100;5.116;2023-03-01T02:15:10;12.60;;;11.27;;
43511;SDS011;34054;52.100;5.116;2023-03-01T02:15:42;13.38;;;11.30;;
43511;SDS011;34054;52.100;5.116;2023-03-01T02:16:14;13.38;;;12.05;;
43511;SDS011;34054;52.100;5.116;2023-03-01T02:16:47;12.50;;;11.35;;
43511;SDS011;34054;52.100;5.116;2023-03-01T02:17:19;14.30;;;12.82;;
43511;SDS011;34054;52.100;5.116;2023-03-01T02:17:53;13.40;;;12.07;;
43511;SDS011;34054;52.100;5.116;2023-03-01T02:18:25;12.65;;;11.45;;
43511;SDS011;34054;52.100;5.116;2023-03-01T02:18:58;18.98;;;13.20;;
43511;SDS011;34054;52.100;5.116;2023-03-01T02:19:32;14.75;;;11.65;;
43511;SDS011;34054;52.100;5.116;2023-03-01T02:20:15;15.05;;;12.65;;
43511;SDS011;34054;52.100;5.116;2023-03-01T02:20:58;11.60;;;10.43;;
43511;SDS011;34054;52.100;5.116;2023-03-01T02:21:40;12.85;;;11.52;;
43511;SDS011;34054;52.100;5.116;2023-03-01T02:22:19;13.25;;;12.05;;
43511;SDS011;34054;52.100;5.116;2023-03-01T02:22:54;12.85;;;11.65;;
43511;SDS011;34054;52.100;5.116;2023-03-01T02:23:26;12.93;;;11.55;;
43511;SDS011;34054;52.100;5.116;2023-03-01T02:23:58;18.17;;;13.55;;
43511;SDS011;34054;52.100;5.116;2023-03-01T02:24:38;14.68;;;13.18;;
43511;SDS011;34054;52.100;5.116;2023-03-01T02:25:26;15.60;;;12.57;;
43511;SDS011;34054;52.100;5.116;2023-03-01T02:26:01;14.90;;;13.60;;
43511;SDS011;34054;52.100;5.116;2023-03-01T02:26:40;12.48;;;11.25;;
43511;SDS011;34054;52.100;5.116;2023-03-01T02:27:16;14.45;;;11.40;;
43511;SDS011;34054;52.100;5.116;2023-03-01T02:27:57;12.98;;;11.73;;
43511;SDS011;34054;52.100;5.116;2023-03-01T02:28:33;17.98;;;12.27;;
43511;SDS011;34054;52.100;5.116;2023-03-01T02:29:07;12.52;;;11.38;;
43511;SDS011;34054;52.100;5.116;2023-03-01T02:29:39;14.68;;;13.27;;
43511;SDS011;34054;52.100;5.116;2023-03-01T02:30:10;12.40;;;11.30;;
43511;SDS011;34054;52.100;5.116;2023-03-01T02:30:43;16.48;;;14.75;;
43511;SDS011;34054;52.100;5.116;2023-03-01T02:31:31;13.77;;;11.52;;
43511;SDS011;34054;52.100;5.116;2023-03-01T02:32:13;13.70;;;11.88;;
43511;SDS011;34054;52.100;5.116;2023-03-01T02:32:45;13.88;;;12.57;;
43511;SDS011;34054;52.100;5.116;2023-03-01T02:33:18;13.93;;;12.48;;
43511;SDS011;34054;52.100;5.116;2023-03-01T02:33:49;15.10;;;12.73;;
43511;SDS011;34054;52.100;5.116;2023-03-01T02:34:23;14.68;;;13.27;;
43511;SDS011;34054;52.100;5.116;2023-03-01T02:34:56;14.18;;;12.70;;
43511;SDS011;34054;52.100;5.116;2023-03-01T02:35:28;14.10;;;12.65;;
43511;SDS011;34054;52.100;5.116;2023-03-01T02:36:03;14.63;;;13.18;;
43511;SDS011;34054;52.100;5.116;2023-03-01T02:36:39;19.60;;;12.75;;
43511;SDS011;34054;52.100;5.116;2023-03-01T02:37:13;14.77;;;13.10;;
43511;SDS011;34054;52.100;5.116;2023-03-01T02:37:51;13.25;;;11.95;;
43511;SDS011;34054;52.100;5.116;2023-03-01T02:38:23;16.35;;;14.77;;
43511;SDS011;34054;52.100;5.116;2023-03-01T02:38:55;14.88;;;13.10;;
43511;SDS011;34054;52.100;5.116;2023-03-01T02:39:30;15.27;;;13.90;;
43511;SDS011;34054;52.100;5.116;2023-03-01T02:40:06;16.27;;;14.60;;
43511;SDS011;34054;52.100;5.116;2023-03-01T02:40:42;16.58;;;13.35;;
43511;SDS011;34054;52.100;5.116;2023-03-01T02:41:15;15.00;;;13.57;;
43511;SDS011;34054;52.100;5.116;2023-03-01T02:41:49;20.45;;;13.65;;
43511;SDS011;34054;52.100;5.116;2023-03-01T02:42:23;14.15;;;12.65;;
43511;SDS011;34054;52.100;5.116;2023-03-01T02:42:59;13.50;;;12.15;;
43511;SDS011;34054;52.100;5.116;2023-03-01T02:43:33;15.48;;;13.93;;
43511;SDS011;34054;52.100;5.116;2023-03-01T02:44:05;17.02;;;12.85;;
43511;SDS011;34054;52.100;5.116;2023-03-01T02:44:36;16.77;;;15.23;;
43511;SDS011;34054;52.100;5.116;2023-03-01T02:45:09;17.52;;;15.68;;
43511;SDS011;34054;52.100;5.116;2023-03-01T02:45:43;16.80;;;12.13;;
43511;SDS011;34054;52.100;5.116;2023-03-01T02:46:19;13.90;;;12.52;;
43511;SDS011;34054;52.100;5.116;2023-03-01T02:46:53;16.85;;;13.38;;
43511;SDS011;34054;52.100;5.116;2023-03-01T02:47:28;15.65;;;14.23;;
43511;SDS011;34054;52.100;5.116;2023-03-01T02:47:59;14.20;;;12.90;;
43511;SDS011;34054;52.100;5.116;2023-03-01T02:48:38;16.70;;;14.43;;
43511;SDS011;34054;52.100;5.116;2023-03-01T02:49:18;15.98;;;14.40;;
43511;SDS011;34054;52.100;5.116;2023-03-01T02:49:52;15.15;;;13.40;;
43511;SDS011;34054;52.100;5.116;2023-03-01T02:50:29;15.77;;;12.45;;
43511;SDS011;34054;52.100;5.116;2023-03-01T02:51:24;13.77;;;12.48;;
43511;SDS011;34054;52.100;5.116;2023-03-01T02:53:15;13.07;;;11.52;;
43511;SDS011;34054;52.100;5.116;2023-03-01T02:53:55;15.35;;;11.65;;
43511;SDS011;34054;52.100;5.116;2023-03-01T02:54:37;22.98;;;11.98;;
43511;SDS011;34054;52.100;5.116;2023-03-01T02:55:13;14.77;;;12.93;;
43511;SDS011;34054;52.100;5.116;2023-03-01T02:55:47;13.63;;;12.43;;
43511;SDS011;34054;52.100;5.116;2023-03-01T02:56:19;14.63;;;13.30;;
43511;SDS011;34054;52.100;5.116;2023-03-01T02:56:50;14.60;;;13.20;;
43511;SDS011;34054;52.100;5.116;2023-03-01T02:57:22;14.77;;;13.50;;
43511;SDS011;34054;52.100;5.116;2023-03-01T02:57:57;16.92;;;15.23;;
43511;SDS011;34054;52.100;5.116;2023-03-01T02:58:35;15.05;;;13.65;;
43511;SDS011;34054;52.100;5.116;2023-03-01T02:59:16;15.13;;;13.63;;
43511;SDS011;34054;52.100;5.116;2023-03-01T02:59:49;14.75;;;12.52;;
43511;SDS011;34054;52.100;5.116;2023-03-01T03:00:24;15.48;;;13.98;;
43511;SDS011;34054;52.100;5.116;2023-03-01T03:00:59;18.50;;;13.73;;
43511;SDS011;34054;52.100;5.116;2023-03-01T03:01:31;14.38;;;12.98;;
43511;SDS011;34054;52.100;5.116;2023-03-01T03:02:17;15.18;;;12.80;;
43511;SDS011;34054;52.100;5.116;2023-03-01T03:02:52;14.20;;;12.82;;
43511;SDS011;34054;52.100;5.116;2023-03-01T03:03:27;15.43;;;13.98;;
43511;SDS011;34054;52.100;5.116;2023-03-01T03:03:59;15.05;;;13.65;;
43511;SDS011;34054;52.100;5.116;2023-03-01T03:04:31;15.05;;;12.95;;
43511;SDS011;34054;52.100;5.116;2023-03-01T03:05:04;15.48;;;13.80;;
43511;SDS011;34054;52.100;5.116;2023-03-01T03:05:38;14.90;;;13.35;;
43511;SDS011;34054;52.100;5.116;2023-03-01T03:06:10;15.45;;;13.88;;
43511;SDS011;34054;52.100;5.116;2023-03-01T03:06:42;14.98;;;13.43;;
43511;SDS011;34054;52.100;5.116;2023-03-01T03:07:14;19.55;;;14.20;;
43511;SDS011;34054;52.100;5.116;2023-03-01T03:07:46;14.60;;;13.20;;
43511;SDS011;34054;52.100;5.116;2023-03-01T03:08:19;17.35;;;15.70;;
43511;SDS011;34054;52.100;5.116;2023-03-01T03:08:54;18.52;;;16.70;;
43511;SDS011;34054;52.100;5.116;2023-03-01T03:09:26;15.70;;;14.07;;
43511;SDS011;34054;52.100;5.116;2023-03-01T03:09:58;18.27;;;14.13;;
43511;SDS011;34054;52.100;5.116;2023-03-01T03:10:30;15.38;;;14.05;;
43511;SDS011;34054;52.100;5.116;2023-03-01T03:11:04;14.73;;;12.65;;
43511;SDS011;34054;52.100;5.116;2023-03-01T03:11:35;13.45;;;12.15;;
43511;SDS011;34054;52.100;5.116;2023-03-01T03:12:07;15.90;;;13.73;;
43511;SDS011;34054;52.100;5.116;2023-03-01T03:12:39;15.52;;;13.30;;
43511;SDS011;34054;52.100;5.116;2023-03-01T03:13:12;14.07;;;12.30;;
43511;SDS011;34054;52.100;5.116;2023-03-01T03:13:46;17.98;;;14.50;;
43511;SDS011;34054;52.100;5.116;2023-03-01T03:14:18;16.83;;;15.43;;
43511;SDS011;34054;52.100;5.116;2023-03-01T03:14:49;16.98;;;15.05;;
43511;SDS011;34054;52.100;5.116;2023-03-01T03:15:21;15.95;;;14.35;;
43511;SDS011;34054;52.100;5.116;2023-03-01T03:15:54;17.02;;;15.35;;
43511;SDS011;34054;52.100;5.116;2023-03-01T03:16:26;15.93;;;14.30;;